Time;durP1;ratioP1;P1;durP2;ratioP2;P2;SDS_P1;SDS_P2;PMS_P1;PMS_P2;Temp;Humidity;BMP_temperature;BMP_pressure;BME280_temperature;BME280_humidity;BME280_pressure;Samples;Min_cycle;Max_cycle;Signal;HPM_P1;HPM_P2
2021/12/16 00:08:28;;;;;;;112.65;46.90;;;;;;;;;;4916300;29;20370;-64
2021/12/16 00:11:03;;;;;;;106.22;47.95;;;;;;;;;;4915474;29;20028;-64
2021/12/16 06:12:10;;;;;;;69.22;29.90;;;;;;;;;;5222606;23;20056;-62
2021/12/16 06:27:46;;;;;;;79.57;35.35;;;;;;;;;;4918779;29;20047;-61
2021/12/16 06:30:14;;;;;;;85.45;37.33;;;;;;;;;;4918636;29;20028;-63
2021/12/16 06:32:40;;;;;;;78.97;32.97;;;;;;;;;;4918191;29;20048;-64
2021/12/16 06:35:07;;;;;;;81.95;36.53;;;;;;;;;;4918418;29;20079;-64
2021/12/16 06:37:33;;;;;;;81.20;34.67;;;;;;;;;;4917185;29;20400;-64
2021/12/16 06:39:59;;;;;;;79.70;33.45;;;;;;;;;;4917366;29;20032;-65
2021/12/16 06:42:26;;;;;;;76.57;31.92;;;;;;;;;;4918454;29;20032;-66
2021/12/16 06:45:12;;;;;;;74.80;32.58;;;;;;;;;;4918024;29;20028;-65
2021/12/16 06:47:49;;;;;;;79.50;33.97;;;;;;;;;;4918415;29;20024;-65
2021/12/16 06:50:27;;;;;;;75.25;31.95;;;;;;;;;;4917947;29;20032;-65
2021/12/16 06:53:02;;;;;;;73.13;31.88;;;;;;;;;;4917493;29;20028;-64
2021/12/16 06:55:44;;;;;;;80.55;33.80;;;;;;;;;;4917279;29;20020;-64
2021/12/16 07:00:50;;;;;;;81.57;34.63;;;;;;;;;;4917898;29;20035;-65
2021/12/16 07:03:19;;;;;;;75.85;32.85;;;;;;;;;;4917673;29;20028;-65
2021/12/16 07:05:46;;;;;;;76.93;33.47;;;;;;;;;;4917861;29;20020;-65
2021/12/16 07:08:15;;;;;;;71.35;32.78;;;;;;;;;;4918011;29;20027;-66
2021/12/16 07:10:45;;;;;;;78.75;32.22;;;;;;;;;;4917941;29;20092;-66
2021/12/16 07:13:18;;;;;;;78.32;35.35;;;;;;;;;;4917472;29;20810;-65
2021/12/16 07:15:44;;;;;;;76.72;33.70;;;;;;;;;;4917861;29;20392;-65
2021/12/16 07:18:10;;;;;;;78.13;34.10;;;;;;;;;;4916585;29;20028;-64
2021/12/16 07:20:37;;;;;;;73.13;34.28;;;;;;;;;;4917735;29;20043;-64
2021/12/16 07:23:04;;;;;;;74.30;33.38;;;;;;;;;;4917830;29;20043;-64
2021/12/16 07:25:31;;;;;;;74.80;32.92;;;;;;;;;;4917402;29;20451;-65
2021/12/16 07:27:57;;;;;;;74.30;33.25;;;;;;;;;;4917564;29;20083;-65
2021/12/16 07:30:24;;;;;;;79.30;35.22;;;;;;;;;;4917686;29;20086;-66
2021/12/16 07:32:51;;;;;;;77.82;34.53;;;;;;;;;;4916210;29;20039;-66
2021/12/16 07:35:18;;;;;;;77.00;34.60;;;;;;;;;;4917712;29;20028;-65
2021/12/16 07:37:45;;;;;;;75.90;35.45;;;;;;;;;;4917517;29;20032;-65
2021/12/16 07:40:12;;;;;;;77.32;36.85;;;;;;;;;;4917048;29;20083;-64
2021/12/16 07:45:41;;;;;;;77.00;35.50;;;;;;;;;;4855136;29;20097;-63
2021/12/16 07:48:08;;;;;;;112.55;47.53;;;;;;;;;;4858547;29;20517;-64
2021/12/16 07:50:34;;;;;;;107.80;49.50;;;;;;;;;;4858159;29;20049;-64
2021/12/16 07:53:01;;;;;;;114.57;53.97;;;;;;;;;;4858130;29;20065;-65
2021/12/16 07:55:27;;;;;;;116.57;49.47;;;;;;;;;;4858054;29;20044;-65
2021/12/16 07:57:53;;;;;;;123.88;56.20;;;;;;;;;;4858305;29;20034;-67
2021/12/16 08:00:21;;;;;;;147.63;68.28;;;;;;;;;;4857980;29;20041;-64
2021/12/16 08:02:47;;;;;;;142.73;65.00;;;;;;;;;;4857969;29;20033;-64
2021/12/16 08:05:15;;;;;;;99.32;45.35;;;;;;;;;;4858223;29;20037;-66
2021/12/16 08:07:41;;;;;;;91.85;42.13;;;;;;;;;;4857923;29;20041;-65
2021/12/16 08:10:09;;;;;;;86.15;40.38;;;;;;;;;;4857843;29;20398;-64
2021/12/16 08:12:35;;;;;;;82.07;39.15;;;;;;;;;;4857444;29;20065;-63
2021/12/16 08:15:01;;;;;;;87.32;39.25;;;;;;;;;;4858016;29;20035;-64
2021/12/16 08:17:28;;;;;;;87.05;42.08;;;;;;;;;;4858230;29;20060;-64
2021/12/16 08:19:54;;;;;;;89.28;40.95;;;;;;;;;;4893379;29;20040;-66
2021/12/16 08:22:20;;;;;;;84.80;40.13;;;;;;;;;;4916617;29;20111;-64
2021/12/16 08:24:46;;;;;;;94.72;42.75;;;;;;;;;;4916411;29;20496;-63
2021/12/16 08:27:12;;;;;;;90.35;40.70;;;;;;;;;;4916570;29;20042;-64
2021/12/16 08:29:38;;;;;;;91.50;41.45;;;;;;;;;;4916588;29;20471;-64
2021/12/16 08:32:05;;;;;;;82.80;40.70;;;;;;;;;;4916427;29;20536;-64
2021/12/16 08:34:33;;;;;;;92.72;41.58;;;;;;;;;;4916235;29;20055;-59
2021/12/16 08:37:00;;;;;;;88.00;39.58;;;;;;;;;;4913826;29;20036;-61
2021/12/16 08:39:27;;;;;;;83.78;40.85;;;;;;;;;;4916230;29;20488;-61
2021/12/16 08:41:55;;;;;;;85.65;40.78;;;;;;;;;;4916050;29;20028;-61
2021/12/16 08:44:21;;;;;;;90.50;41.20;;;;;;;;;;4915875;29;20028;-62
2021/12/16 08:46:51;;;;;;;82.90;39.70;;;;;;;;;;4916311;29;20046;-62
2021/12/16 08:49:17;;;;;;;86.22;39.67;;;;;;;;;;4916130;29;20103;-59
2021/12/16 08:51:45;;;;;;;83.18;39.72;;;;;;;;;;4915935;29;20085;-62
2021/12/16 08:54:11;;;;;;;81.93;39.58;;;;;;;;;;4916020;29;20503;-60
2021/12/16 08:56:38;;;;;;;79.82;40.38;;;;;;;;;;4916061;29;20083;-61
2021/12/16 08:59:05;;;;;;;87.90;42.03;;;;;;;;;;4916123;29;20032;-60
2021/12/16 09:01:32;;;;;;;90.15;39.65;;;;;;;;;;4915968;29;20032;-63
2021/12/16 09:03:59;;;;;;;84.13;39.60;;;;;;;;;;4898180;29;20535;-63
2021/12/16 09:06:26;;;;;;;86.53;40.08;;;;;;;;;;4915922;29;20028;-62
2021/12/16 09:08:52;;;;;;;85.88;39.95;;;;;;;;;;4915512;29;20155;-63
2021/12/16 09:11:22;;;;;;;88.30;40.17;;;;;;;;;;4914851;29;20036;-62
2021/12/16 09:13:49;;;;;;;95.82;42.65;;;;;;;;;;4915472;29;20115;-64
2021/12/16 09:16:18;;;;;;;89.78;41.92;;;;;;;;;;4915796;29;20036;-62
2021/12/16 09:18:44;;;;;;;96.60;42.80;;;;;;;;;;4915659;29;20035;-62
2021/12/16 09:21:12;;;;;;;92.22;42.10;;;;;;;;;;4915346;29;20071;-60
2021/12/16 09:23:39;;;;;;;92.00;42.15;;;;;;;;;;4915639;29;20025;-63
2021/12/16 09:26:05;;;;;;;91.72;42.80;;;;;;;;;;4915755;29;20114;-63
2021/12/16 09:28:31;;;;;;;89.80;42.75;;;;;;;;;;4915649;29;20040;-62
2021/12/16 09:30:57;;;;;;;98.78;44.88;;;;;;;;;;4915360;29;20040;-63
2021/12/16 09:33:25;;;;;;;98.57;44.85;;;;;;;;;;4915272;29;20080;-63
2021/12/16 09:35:53;;;;;;;102.63;46.38;;;;;;;;;;4915210;29;20032;-61
2021/12/16 09:38:20;;;;;;;101.05;46.97;;;;;;;;;;4915210;29;20028;-62
2021/12/16 09:40:50;;;;;;;101.90;46.80;;;;;;;;;;4915299;29;20044;-62
2021/12/16 09:43:27;;;;;;;106.40;47.45;;;;;;;;;;4914887;29;20036;-66
2021/12/16 09:45:55;;;;;;;102.78;46.55;;;;;;;;;;4915332;29;20035;-64
2021/12/16 09:48:21;;;;;;;106.53;47.67;;;;;;;;;;4915317;29;20035;-63
2021/12/16 09:50:48;;;;;;;106.85;47.53;;;;;;;;;;4914788;29;20044;-66
2021/12/16 09:53:14;;;;;;;101.45;46.50;;;;;;;;;;4914859;29;20095;-62
2021/12/16 09:55:43;;;;;;;98.15;46.22;;;;;;;;;;4914862;29;20024;-65
2021/12/16 09:58:09;;;;;;;106.78;48.63;;;;;;;;;;4913468;29;20035;-63
2021/12/16 10:00:35;;;;;;;105.65;47.97;;;;;;;;;;4913055;29;20071;-66
2021/12/16 10:03:03;;;;;;;104.80;47.75;;;;;;;;;;4915006;29;20079;-65
2021/12/16 10:05:31;;;;;;;105.03;49.28;;;;;;;;;;4914787;29;20035;-67
2021/12/16 10:07:57;;;;;;;99.97;46.50;;;;;;;;;;4914419;29;20024;-63
2021/12/16 10:10:25;;;;;;;101.20;46.88;;;;;;;;;;4915110;29;20382;-64
2021/12/16 10:12:53;;;;;;;98.53;46.20;;;;;;;;;;4914488;29;20047;-68
2021/12/16 10:17:58;;;;;;;108.45;47.53;;;;;;;;;;4914877;29;20710;-64
2021/12/16 10:20:27;;;;;;;99.80;48.72;;;;;;;;;;4914627;29;20032;-62
2021/12/16 10:23:01;;;;;;;100.55;49.22;;;;;;;;;;4915021;29;20024;-64
2021/12/16 10:25:32;;;;;;;105.40;48.47;;;;;;;;;;4913777;29;20036;-63
2021/12/16 10:28:04;;;;;;;105.65;49.78;;;;;;;;;;4914542;29;20036;-64
2021/12/16 10:30:30;;;;;;;;;;;;;;;;;;4914626;29;20032;-63
2021/12/16 10:32:56;;;;;;;97.63;46.88;;;;;;;;;;4914590;29;20413;-63
2021/12/16 10:35:30;;;;;;;107.38;50.80;;;;;;;;;;4914046;29;20504;-62
2021/12/16 10:37:58;;;;;;;101.47;48.35;;;;;;;;;;4914223;29;20028;-62
2021/12/16 10:40:27;;;;;;;104.85;50.85;;;;;;;;;;4914466;29;20480;-63
2021/12/16 10:42:53;;;;;;;109.15;51.92;;;;;;;;;;4912887;29;20123;-63
2021/12/16 10:45:31;;;;;;;105.82;50.90;;;;;;;;;;4914042;29;20040;-62
2021/12/16 10:48:16;;;;;;;107.50;51.83;;;;;;;;;;4914410;29;20099;-63
2021/12/16 10:50:48;;;;;;;106.75;50.50;;;;;;;;;;4914128;29;20103;-63
2021/12/16 10:53:14;;;;;;;104.95;50.35;;;;;;;;;;4913784;29;20040;-62
2021/12/16 10:55:56;;;;;;;105.38;50.55;;;;;;;;;;4913431;29;20520;-62
2021/12/16 10:58:42;;;;;;;103.40;50.17;;;;;;;;;;4913719;29;20071;-62
2021/12/16 11:01:28;;;;;;;101.68;50.30;;;;;;;;;;4912430;29;20036;-63
2021/12/16 11:03:54;;;;;;;102.53;53.03;;;;;;;;;;4914089;29;20024;-62
2021/12/16 11:06:35;;;;;;;101.25;51.63;;;;;;;;;;4912541;29;20403;-63
2021/12/16 11:09:20;;;;;;;100.20;48.42;;;;;;;;;;4917540;29;20031;-62
2021/12/16 11:11:46;;;;;;;95.13;48.22;;;;;;;;;;4915235;29;20059;-62
2021/12/16 11:14:12;;;;;;;98.00;48.35;;;;;;;;;;4917641;29;20075;-63
2021/12/16 11:16:38;;;;;;;94.93;47.97;;;;;;;;;;4917564;29;20444;-62
2021/12/16 11:19:05;;;;;;;99.18;49.92;;;;;;;;;;4917923;29;20040;-66
2021/12/16 11:21:39;;;;;;;97.95;47.83;;;;;;;;;;4917564;29;20028;-62
2021/12/16 11:24:22;;;;;;;93.85;47.35;;;;;;;;;;4916044;29;20115;-63
2021/12/16 11:26:48;;;;;;;94.82;46.95;;;;;;;;;;4917129;29;20469;-62
2021/12/16 11:29:14;;;;;;;98.38;49.50;;;;;;;;;;4917504;29;20543;-63
2021/12/16 11:31:40;;;;;;;97.47;48.70;;;;;;;;;;4917380;29;20091;-63
2021/12/16 11:34:10;;;;;;;91.63;47.72;;;;;;;;;;4916481;29;20024;-63
2021/12/16 11:36:44;;;;;;;93.53;47.50;;;;;;;;;;4917198;29;20107;-62
2021/12/16 11:39:12;;;;;;;108.50;52.90;;;;;;;;;;4917134;29;20492;-61
2021/12/16 11:41:45;;;;;;;114.50;55.22;;;;;;;;;;4917217;29;20126;-60
2021/12/16 11:44:13;;;;;;;96.72;48.58;;;;;;;;;;4915734;29;20028;-61
2021/12/16 11:46:45;;;;;;;101.85;50.75;;;;;;;;;;4916858;29;20036;-62
2021/12/16 11:49:11;;;;;;;;;;;;;;;;;;4916362;29;20024;-62
2021/12/16 11:51:50;;;;;;;95.57;48.97;;;;;;;;;;4917000;29;20421;-62
2021/12/16 11:54:37;;;;;;;97.10;48.17;;;;;;;;;;4917135;29;20031;-62
2021/12/16 11:57:03;;;;;;;92.55;46.90;;;;;;;;;;4917078;29;20087;-61
2021/12/16 11:59:41;;;;;;;93.63;46.72;;;;;;;;;;4916902;29;20099;-62
2021/12/16 12:02:19;;;;;;;96.00;47.25;;;;;;;;;;4917114;29;20064;-63
2021/12/16 12:04:45;;;;;;;96.75;45.83;;;;;;;;;;4916965;29;20481;-62
2021/12/16 12:07:15;;;;;;;97.78;47.88;;;;;;;;;;4916129;29;20511;-63
2021/12/16 12:09:43;;;;;;;101.97;50.10;;;;;;;;;;4916778;29;20375;-63
2021/12/16 12:12:09;;;;;;;97.38;48.15;;;;;;;;;;4916109;29;20044;-61
2021/12/16 12:14:37;;;;;;;97.70;48.83;;;;;;;;;;4916305;29;20508;-63
2021/12/16 12:17:04;;;;;;;102.32;48.00;;;;;;;;;;4916594;29;20034;-63
2021/12/16 12:19:30;;;;;;;97.85;46.63;;;;;;;;;;4915650;29;20035;-63
2021/12/16 12:22:01;;;;;;;98.97;48.70;;;;;;;;;;4915936;29;20046;-64
2021/12/16 12:24:32;;;;;;;93.45;47.88;;;;;;;;;;4916102;29;20504;-63
2021/12/16 12:27:04;;;;;;;105.40;49.95;;;;;;;;;;4914372;29;20028;-61
2021/12/16 12:29:30;;;;;;;101.93;49.38;;;;;;;;;;4916541;29;20036;-62
2021/12/16 12:32:00;;;;;;;98.93;48.03;;;;;;;;;;4916164;29;20043;-63
2021/12/16 12:34:29;;;;;;;95.35;47.67;;;;;;;;;;4915905;29;20024;-64
2021/12/16 12:36:56;;;;;;;99.38;47.72;;;;;;;;;;4916444;29;20381;-62
2021/12/16 12:39:24;;;;;;;98.40;48.55;;;;;;;;;;4916427;29;20468;-62
2021/12/16 12:41:51;;;;;;;98.80;47.42;;;;;;;;;;4914921;29;20397;-63
2021/12/16 12:44:17;;;;;;;92.13;46.60;;;;;;;;;;4915922;29;20067;-62
2021/12/16 12:46:44;;;;;;;105.30;48.88;;;;;;;;;;4915567;29;20507;-63
2021/12/16 12:49:11;;;;;;;94.60;47.78;;;;;;;;;;4915818;29;20115;-63
2021/12/16 12:51:43;;;;;;;101.13;50.17;;;;;;;;;;4915206;29;20079;-62
2021/12/16 12:54:15;;;;;;;100.00;48.35;;;;;;;;;;4912737;29;20040;-63
2021/12/16 12:56:41;;;;;;;102.18;49.20;;;;;;;;;;4916027;29;20511;-63
2021/12/16 12:59:11;;;;;;;96.55;48.40;;;;;;;;;;4915324;29;20043;-61
2021/12/16 13:01:49;;;;;;;98.95;48.20;;;;;;;;;;4916040;29;20107;-61
2021/12/16 13:04:21;;;;;;;101.03;50.45;;;;;;;;;;4915296;29;20500;-62
2021/12/16 13:06:53;;;;;;;108.90;54.10;;;;;;;;;;4916046;29;20035;-63
2021/12/16 13:09:33;;;;;;;105.43;50.47;;;;;;;;;;4915664;29;20685;-63
2021/12/16 13:12:00;;;;;;;119.80;55.40;;;;;;;;;;4915675;29;20103;-61
2021/12/16 13:14:41;;;;;;;125.95;57.38;;;;;;;;;;4915278;29;20032;-63
2021/12/16 13:28:38;;;;;;;103.88;50.05;;;;;;;;;;4915050;29;20115;-63
2021/12/16 13:31:24;;;;;;;101.18;50.65;;;;;;;;;;4915271;29;20544;-64
2021/12/16 13:33:56;;;;;;;106.90;52.17;;;;;;;;;;4915276;29;20028;-64
2021/12/16 13:36:41;;;;;;;111.43;54.97;;;;;;;;;;4915183;29;20031;-64
2021/12/16 13:39:12;;;;;;;107.18;53.00;;;;;;;;;;4915109;29;20064;-65
2021/12/16 13:41:53;;;;;;;109.03;50.73;;;;;;;;;;4915185;29;20032;-63
2021/12/16 13:44:34;;;;;;;111.60;52.15;;;;;;;;;;4914836;29;20380;-62
2021/12/16 13:47:08;;;;;;;111.57;52.78;;;;;;;;;;4914941;29;20115;-63
2021/12/16 14:06:41;;;;;;;94.10;42.10;;;;;;;;;;4914449;29;20043;-65
2021/12/16 14:09:17;;;;;;;122.88;55.60;;;;;;;;;;4914140;29;20035;-64
2021/12/16 14:14:42;;;;;;;124.43;56.75;;;;;;;;;;4914756;29;20041;-64
2021/12/16 14:17:30;;;;;;;120.22;54.40;;;;;;;;;;4914633;29;20035;-65
2021/12/16 14:23:05;;;;;;;127.40;55.45;;;;;;;;;;4913623;29;20098;-64
2021/12/16 14:25:39;;;;;;;122.28;55.90;;;;;;;;;;4914252;29;20056;-64
2021/12/16 14:31:23;;;;;;;121.82;54.75;;;;;;;;;;4914848;29;20039;-64
2021/12/16 14:47:17;;;;;;;117.45;55.05;;;;;;;;;;4918212;29;20540;-64
2021/12/16 14:49:45;;;;;;;112.95;54.17;;;;;;;;;;4918177;29;20115;-65
2021/12/16 14:52:26;;;;;;;116.95;55.30;;;;;;;;;;4917701;29;20052;-65
2021/12/16 14:54:57;;;;;;;117.20;53.80;;;;;;;;;;4917876;29;20087;-64
2021/12/16 14:57:25;;;;;;;117.70;53.92;;;;;;;;;;4918094;29;20024;-65
2021/12/16 14:59:51;;;;;;;116.75;53.78;;;;;;;;;;4917996;29;20066;-66
2021/12/16 15:02:18;;;;;;;108.05;53.40;;;;;;;;;;4918091;29;20055;-64
2021/12/16 15:04:45;;;;;;;112.30;52.55;;;;;;;;;;4917635;29;20060;-66
2021/12/16 15:07:12;;;;;;;112.93;53.05;;;;;;;;;;4917806;29;20028;-64
2021/12/16 15:09:40;;;;;;;109.18;52.65;;;;;;;;;;4915377;29;20583;-65
2021/12/16 15:12:14;;;;;;;108.97;53.10;;;;;;;;;;4917359;29;20108;-64
2021/12/16 15:33:39;;;;;;;103.57;51.10;;;;;;;;;;4859055;29;20080;-64
2021/12/16 15:40:10;;;;;;;109.47;52.28;;;;;;;;;;4858158;29;20052;-63
2021/12/16 15:42:53;;;;;;;110.30;52.88;;;;;;;;;;4842748;29;20527;-63
2021/12/16 15:45:24;;;;;;;106.25;51.50;;;;;;;;;;4858587;29;20033;-65
2021/12/16 15:47:54;;;;;;;100.82;51.58;;;;;;;;;;4858405;29;20072;-63
2021/12/16 15:50:27;;;;;;;104.97;50.90;;;;;;;;;;4858555;29;20106;-63
2021/12/16 15:52:54;;;;;;;;;;;;;;;;;;4858052;29;20053;-62
2021/12/16 15:55:43;;;;;;;104.65;51.45;;;;;;;;;;4858299;29;19912;-63
2021/12/16 15:58:09;;;;;;;101.18;50.25;;;;;;;;;;4916704;29;20038;-64
2021/12/16 16:00:38;;;;;;;101.20;50.13;;;;;;;;;;4915807;29;20084;-64
2021/12/16 16:03:05;;;;;;;101.05;51.05;;;;;;;;;;4916563;29;20095;-64
2021/12/16 16:05:33;;;;;;;100.68;51.00;;;;;;;;;;4916585;29;20507;-64
2021/12/16 16:08:00;;;;;;;109.20;51.45;;;;;;;;;;4916499;29;20096;-64
2021/12/16 16:10:26;;;;;;;99.82;50.08;;;;;;;;;;4916216;29;20503;-64
2021/12/16 16:12:52;;;;;;;98.82;51.47;;;;;;;;;;4916402;29;20056;-63
2021/12/16 16:15:22;;;;;;;96.93;50.45;;;;;;;;;;4916500;29;20181;-63
2021/12/16 16:20:37;;;;;;;96.00;47.85;;;;;;;;;;4916023;29;20127;-63
2021/12/16 16:23:04;;;;;;;100.72;50.33;;;;;;;;;;4916157;29;20115;-64
2021/12/16 16:25:31;;;;;;;94.95;49.88;;;;;;;;;;4916123;29;20035;-62
2021/12/16 16:27:57;;;;;;;99.15;50.90;;;;;;;;;;4916321;29;20032;-65
2021/12/16 16:30:24;;;;;;;98.63;50.90;;;;;;;;;;4916074;29;20370;-63
2021/12/16 16:33:09;;;;;;;112.13;55.53;;;;;;;;;;4915983;29;20043;-63
2021/12/16 16:35:36;;;;;;;112.95;56.45;;;;;;;;;;4916132;29;20024;-63
2021/12/16 16:38:22;;;;;;;105.95;52.60;;;;;;;;;;4916011;29;20035;-63
2021/12/16 16:40:50;;;;;;;100.97;53.05;;;;;;;;;;4915558;29;20024;-63
2021/12/16 16:43:28;;;;;;;100.63;52.85;;;;;;;;;;4915987;29;20484;-63
2021/12/16 16:45:57;;;;;;;100.97;51.70;;;;;;;;;;4915708;29;20032;-63
2021/12/16 16:48:34;;;;;;;100.07;51.65;;;;;;;;;;4916053;29;20028;-65
2021/12/16 16:51:05;;;;;;;100.97;50.75;;;;;;;;;;4915906;29;20127;-63
2021/12/16 16:53:31;;;;;;;102.05;52.20;;;;;;;;;;4916043;29;20036;-64
2021/12/16 16:55:58;;;;;;;97.03;52.30;;;;;;;;;;4915875;29;20492;-67
2021/12/16 16:58:24;;;;;;;99.65;50.17;;;;;;;;;;4915884;29;20059;-64
2021/12/16 17:00:50;;;;;;;97.70;50.55;;;;;;;;;;4915552;29;20036;-63
2021/12/16 17:03:19;;;;;;;98.05;52.78;;;;;;;;;;4913226;29;20448;-65
2021/12/16 17:05:54;;;;;;;102.47;53.17;;;;;;;;;;4915473;29;20059;-63
2021/12/16 17:08:25;;;;;;;103.53;53.15;;;;;;;;;;4915582;29;20032;-63
2021/12/16 17:10:53;;;;;;;98.65;51.05;;;;;;;;;;4915150;29;20036;-62
2021/12/16 17:13:46;;;;;;;101.30;51.78;;;;;;;;;;4914521;29;20063;-65
2021/12/16 17:18:46;;;;;;;104.90;53.45;;;;;;;;;;4915974;29;20036;-65
2021/12/16 17:21:20;;;;;;;103.13;52.92;;;;;;;;;;4915481;29;20030;-64
2021/12/16 17:23:50;;;;;;;101.15;53.33;;;;;;;;;;4914842;29;20034;-64
2021/12/16 17:26:26;;;;;;;104.57;54.53;;;;;;;;;;4915471;29;20028;-63
2021/12/16 17:28:54;;;;;;;104.03;55.00;;;;;;;;;;4915278;29;20063;-64
2021/12/16 17:31:52;;;;;;;105.72;55.05;;;;;;;;;;4914695;29;20063;-63
2021/12/16 17:34:23;;;;;;;101.43;52.95;;;;;;;;;;4837142;29;20106;-71
2021/12/16 17:36:54;;;;;;;107.38;57.03;;;;;;;;;;4837772;29;20046;-64
2021/12/16 17:39:22;;;;;;;116.00;60.35;;;;;;;;;;4838245;29;20109;-64
2021/12/16 17:41:59;;;;;;;107.00;58.03;;;;;;;;;;4837265;29;20679;-65
2021/12/16 17:44:26;;;;;;;100.40;53.80;;;;;;;;;;4838058;29;20045;-65
2021/12/16 17:46:54;;;;;;;99.68;54.40;;;;;;;;;;4836252;29;20070;-64
2021/12/16 17:49:21;;;;;;;96.85;51.85;;;;;;;;;;4836516;29;20490;-63
2021/12/16 17:51:47;;;;;;;94.38;51.33;;;;;;;;;;4829333;29;20575;-63
2021/12/16 17:54:13;;;;;;;100.78;54.40;;;;;;;;;;4837002;29;20048;-63
2021/12/16 17:56:40;;;;;;;100.72;53.17;;;;;;;;;;4836376;29;20596;-63
2021/12/16 17:59:09;;;;;;;95.95;50.20;;;;;;;;;;4837295;29;20036;-62
2021/12/16 18:01:37;;;;;;;92.30;49.17;;;;;;;;;;4836342;29;20045;-64
2021/12/16 18:04:10;;;;;;;97.25;49.20;;;;;;;;;;4836936;29;20071;-64
2021/12/16 18:06:49;;;;;;;90.07;48.35;;;;;;;;;;4836718;29;20052;-64
2021/12/16 18:09:22;;;;;;;85.30;44.78;;;;;;;;;;4854999;29;20119;-72
2021/12/16 18:11:52;;;;;;;85.32;47.90;;;;;;;;;;4910333;29;20036;-65
2021/12/16 18:14:20;;;;;;;92.00;46.83;;;;;;;;;;4912091;29;20044;-66
2021/12/16 18:17:00;;;;;;;85.50;45.67;;;;;;;;;;4911489;29;20118;-65
2021/12/16 18:19:29;;;;;;;93.22;49.03;;;;;;;;;;4912295;29;20024;-64
2021/12/16 18:21:58;;;;;;;95.82;50.28;;;;;;;;;;4912894;29;20040;-66
2021/12/16 18:24:32;;;;;;;92.68;50.65;;;;;;;;;;4912587;29;20035;-66
2021/12/16 18:26:58;;;;;;;106.50;54.92;;;;;;;;;;4912760;29;20055;-65
2021/12/16 18:29:24;;;;;;;103.20;52.83;;;;;;;;;;4912750;29;20016;-66
2021/12/16 18:31:50;;;;;;;98.93;52.75;;;;;;;;;;4912603;29;20128;-69
2021/12/16 18:34:18;;;;;;;99.25;53.20;;;;;;;;;;4907710;29;20028;-66
2021/12/16 18:36:45;;;;;;;101.47;54.10;;;;;;;;;;4913488;29;20028;-68
2021/12/16 18:39:20;;;;;;;93.50;50.13;;;;;;;;;;4912421;29;20028;-65
2021/12/16 18:41:50;;;;;;;93.20;48.17;;;;;;;;;;4912410;29;20017;-64
2021/12/16 18:44:22;;;;;;;87.85;47.28;;;;;;;;;;4912756;29;20036;-64
2021/12/16 18:46:48;;;;;;;92.88;49.53;;;;;;;;;;4913419;29;20079;-68
2021/12/16 18:49:26;;;;;;;87.40;49.13;;;;;;;;;;4913862;29;20115;-66
2021/12/16 18:54:30;;;;;;;96.65;49.58;;;;;;;;;;4913934;29;20036;-64
2021/12/16 18:56:58;;;;;;;95.38;50.45;;;;;;;;;;4913778;29;20056;-63
2021/12/16 18:59:24;;;;;;;98.30;50.42;;;;;;;;;;4915038;29;20036;-68
2021/12/16 19:01:55;;;;;;;94.82;50.85;;;;;;;;;;4914747;29;20095;-70
2021/12/16 19:04:23;;;;;;;96.00;49.03;;;;;;;;;;4913695;29;20156;-64
2021/12/16 19:06:51;;;;;;;90.38;48.33;;;;;;;;;;4914100;29;20052;-66
2021/12/16 19:09:18;;;;;;;98.43;49.72;;;;;;;;;;4914165;29;20027;-66
2021/12/16 19:11:52;;;;;;;91.72;48.65;;;;;;;;;;4913262;29;20043;-63
2021/12/16 19:14:19;;;;;;;91.88;47.88;;;;;;;;;;4914107;29;20091;-65
2021/12/16 19:16:46;;;;;;;94.60;50.42;;;;;;;;;;4913826;29;20028;-64
2021/12/16 19:19:13;;;;;;;96.35;48.65;;;;;;;;;;4913028;29;20027;-63
2021/12/16 19:21:40;;;;;;;95.50;48.08;;;;;;;;;;4914632;29;20477;-65
2021/12/16 19:24:07;;;;;;;97.35;50.35;;;;;;;;;;4912881;29;20040;-64
2021/12/16 19:26:34;;;;;;;92.38;49.30;;;;;;;;;;4913497;29;20080;-69
2021/12/16 19:29:00;;;;;;;94.18;49.47;;;;;;;;;;4916569;29;20115;-67
2021/12/16 19:31:27;;;;;;;84.22;46.85;;;;;;;;;;4917053;29;20025;-68
2021/12/16 19:33:55;;;;;;;83.80;46.45;;;;;;;;;;4916763;29;20047;-67
2021/12/16 19:36:22;;;;;;;92.15;47.58;;;;;;;;;;4917160;29;20032;-64
2021/12/16 19:38:49;;;;;;;90.72;45.63;;;;;;;;;;4916889;29;20043;-68
2021/12/16 19:41:19;;;;;;;84.85;45.65;;;;;;;;;;4916908;29;20075;-65
2021/12/16 19:43:46;;;;;;;87.55;47.33;;;;;;;;;;4916963;29;20036;-68
2021/12/16 19:46:12;;;;;;;86.05;46.90;;;;;;;;;;4914826;29;20028;-68
2021/12/16 19:48:38;;;;;;;88.78;48.22;;;;;;;;;;4916286;29;20480;-65
2021/12/16 19:51:08;;;;;;;83.10;46.25;;;;;;;;;;4916403;29;20063;-66
2021/12/16 19:53:35;;;;;;;85.80;47.30;;;;;;;;;;4916561;29;20039;-64
2021/12/16 19:56:02;;;;;;;92.78;48.75;;;;;;;;;;4916411;29;20028;-63
2021/12/16 19:58:29;;;;;;;86.53;46.92;;;;;;;;;;4916290;29;20079;-64
2021/12/16 20:00:55;;;;;;;82.18;45.15;;;;;;;;;;4916255;29;20484;-64
2021/12/16 20:03:22;;;;;;;80.43;44.70;;;;;;;;;;4916835;29;20036;-65
2021/12/16 20:05:49;;;;;;;85.40;45.97;;;;;;;;;;4916645;29;20035;-64
2021/12/16 20:08:15;;;;;;;79.88;43.40;;;;;;;;;;4917013;29;20028;-65
2021/12/16 20:10:46;;;;;;;77.15;42.92;;;;;;;;;;4915265;29;20087;-64
2021/12/16 20:13:15;;;;;;;79.03;42.83;;;;;;;;;;4915863;29;20059;-63
2021/12/16 20:15:44;;;;;;;77.97;43.38;;;;;;;;;;4915108;29;20031;-65
2021/12/16 20:18:12;;;;;;;83.95;45.00;;;;;;;;;;4915271;29;20056;-63
2021/12/16 20:20:50;;;;;;;82.70;45.20;;;;;;;;;;4916289;29;20074;-64
2021/12/16 20:23:16;;;;;;;80.63;44.83;;;;;;;;;;4916874;29;20028;-63
2021/12/16 20:25:45;;;;;;;81.70;45.05;;;;;;;;;;4916070;29;20055;-64
2021/12/16 20:28:15;;;;;;;81.80;45.20;;;;;;;;;;4916510;29;20066;-66
2021/12/16 20:30:45;;;;;;;81.80;45.63;;;;;;;;;;4916620;29;20480;-64
2021/12/16 20:33:17;;;;;;;83.65;47.03;;;;;;;;;;4916635;29;20524;-65
2021/12/16 20:35:47;;;;;;;85.88;45.53;;;;;;;;;;4916496;29;20084;-64
2021/12/16 20:38:15;;;;;;;82.15;46.70;;;;;;;;;;4916439;29;20489;-64
2021/12/16 20:40:43;;;;;;;84.35;46.55;;;;;;;;;;4915591;29;20087;-65
2021/12/16 20:43:12;;;;;;;79.45;45.67;;;;;;;;;;4916366;29;20031;-65
2021/12/16 20:45:58;;;;;;;83.88;46.60;;;;;;;;;;4916545;29;20028;-69
2021/12/16 20:48:30;;;;;;;82.22;45.83;;;;;;;;;;4916150;29;20036;-66
2021/12/16 20:50:57;;;;;;;89.20;48.45;;;;;;;;;;4916213;29;20476;-67
2021/12/16 20:53:25;;;;;;;89.57;49.13;;;;;;;;;;4916055;29;20054;-65
2021/12/16 20:55:51;;;;;;;93.53;50.22;;;;;;;;;;4915929;29;20036;-66
2021/12/16 20:58:23;;;;;;;94.68;52.30;;;;;;;;;;4914641;29;20040;-66
2021/12/16 21:00:52;;;;;;;87.22;48.13;;;;;;;;;;4915775;29;20070;-65
2021/12/16 21:03:18;;;;;;;91.07;48.85;;;;;;;;;;4915669;29;20031;-66
2021/12/16 21:05:46;;;;;;;88.45;49.10;;;;;;;;;;4915885;29;20028;-67
2021/12/16 21:08:14;;;;;;;91.22;49.05;;;;;;;;;;4915546;29;20031;-65
2021/12/16 21:10:41;;;;;;;88.53;48.17;;;;;;;;;;4915386;29;20032;-64
2021/12/16 21:13:07;;;;;;;86.72;46.10;;;;;;;;;;4915600;29;20460;-65
2021/12/16 21:15:34;;;;;;;88.30;47.85;;;;;;;;;;4915623;29;20042;-67
2021/12/16 21:18:01;;;;;;;85.78;48.15;;;;;;;;;;4915556;29;20032;-68
2021/12/16 21:20:28;;;;;;;86.25;47.25;;;;;;;;;;4915696;29;20051;-66
2021/12/16 21:22:55;;;;;;;94.35;51.28;;;;;;;;;;4915536;29;20072;-66
2021/12/16 21:25:24;;;;;;;89.80;49.90;;;;;;;;;;4915556;29;20052;-67
2021/12/16 21:27:50;;;;;;;98.40;53.78;;;;;;;;;;4915589;29;20032;-66
2021/12/16 21:30:17;;;;;;;96.50;52.92;;;;;;;;;;4915590;29;20041;-66
2021/12/16 21:32:43;;;;;;;104.28;56.50;;;;;;;;;;4915503;29;20123;-68
2021/12/16 21:35:17;;;;;;;107.63;57.53;;;;;;;;;;4915350;29;20370;-65
2021/12/16 21:37:44;;;;;;;103.55;56.17;;;;;;;;;;4915442;29;20031;-65
2021/12/16 21:40:10;;;;;;;103.30;54.80;;;;;;;;;;4915120;29;20059;-66
2021/12/16 21:42:39;;;;;;;101.65;53.60;;;;;;;;;;4915170;29;20024;-65
2021/12/16 21:45:06;;;;;;;104.57;53.13;;;;;;;;;;4915289;29;20079;-65
2021/12/16 21:47:33;;;;;;;102.03;53.75;;;;;;;;;;4915184;29;20533;-68
2021/12/16 21:50:00;;;;;;;106.90;55.47;;;;;;;;;;4911212;29;20136;-64
2021/12/16 21:52:26;;;;;;;114.95;57.90;;;;;;;;;;4912940;29;20091;-66
2021/12/16 21:54:52;;;;;;;106.13;57.25;;;;;;;;;;4914651;29;20032;-67
2021/12/16 21:57:19;;;;;;;104.43;54.60;;;;;;;;;;4914546;29;20024;-65
2021/12/16 21:59:47;;;;;;;109.72;57.95;;;;;;;;;;4914801;29;20495;-64
2021/12/16 22:02:13;;;;;;;164.75;83.05;;;;;;;;;;4914540;29;20024;-66
2021/12/16 22:04:41;;;;;;;116.45;62.55;;;;;;;;;;4914673;29;20036;-66
2021/12/16 22:07:07;;;;;;;108.35;58.72;;;;;;;;;;4914462;29;20212;-65
2021/12/16 22:09:33;;;;;;;112.57;60.22;;;;;;;;;;4914222;29;20032;-67
2021/12/16 22:12:01;;;;;;;107.25;56.25;;;;;;;;;;4914060;29;20044;-66
2021/12/16 22:14:27;;;;;;;110.60;60.30;;;;;;;;;;4914151;29;20045;-65
2021/12/16 22:16:54;;;;;;;105.38;55.85;;;;;;;;;;4914144;29;20116;-68